sensor_id;sensor_type;location;lat;lon;timestamp;P1;durP1;ratioP1;P2;durP2;ratioP2
34204;SDS011;20471;49.680;20.074;2023-08-08T00:02:04;1.00;;;0.80;;
34204;SDS011;20471;49.680;20.074;2023-08-08T00:04:31;1.30;;;0.80;;
34204;SDS011;20471;49.680;20.074;2023-08-08T00:06:57;0.70;;;0.70;;
34204;SDS011;20471;49.680;20.074;2023-08-08T00:09:23;0.60;;;0.60;;
34204;SDS011;20471;49.680;20.074;2023-08-08T00:11:50;1.90;;;0.50;;
34204;SDS011;20471;49.680;20.074;2023-08-08T00:14:16;0.60;;;0.60;;
34204;SDS011;20471;49.680;20.074;2023-08-08T00:16:42;2.20;;;0.70;;
34204;SDS011;20471;49.680;20.074;2023-08-08T00:19:09;0.80;;;0.70;;
34204;SDS011;20471;49.680;20.074;2023-08-08T00:21:35;2.10;;;0.70;;
34204;SDS011;20471;49.680;20.074;2023-08-08T00:24:01;1.00;;;1.00;;
34204;SDS011;20471;49.680;20.074;2023-08-08T00:26:27;0.90;;;0.50;;
34204;SDS011;20471;49.680;20.074;2023-08-08T00:28:54;2.00;;;0.70;;
34204;SDS011;20471;49.680;20.074;2023-08-08T00:31:20;1.40;;;0.70;;
34204;SDS011;20471;49.680;20.074;2023-08-08T00:33:46;1.00;;;0.60;;
34204;SDS011;20471;49.680;20.074;2023-08-08T00:36:13;1.20;;;0.80;;
34204;SDS011;20471;49.680;20.074;2023-08-08T00:38:39;1.00;;;0.70;;
34204;SDS011;20471;49.680;20.074;2023-08-08T00:41:05;0.60;;;0.60;;
34204;SDS011;20471;49.680;20.074;2023-08-08T00:43:32;0.60;;;0.50;;
34204;SDS011;20471;49.680;20.074;2023-08-08T00:45:58;0.70;;;0.60;;
34204;SDS011;20471;49.680;20.074;2023-08-08T00:48:25;1.40;;;0.60;;
34204;SDS011;20471;49.680;20.074;2023-08-08T00:50:52;1.50;;;0.90;;
34204;SDS011;20471;49.680;20.074;2023-08-08T00:53:18;0.80;;;0.50;;
34204;SDS011;20471;49.680;20.074;2023-08-08T00:55:45;2.00;;;0.60;;
34204;SDS011;20471;49.680;20.074;2023-08-08T00:58:12;0.60;;;0.60;;
34204;SDS011;20471;49.680;20.074;2023-08-08T01:00:39;0.90;;;0.80;;
34204;SDS011;20471;49.680;20.074;2023-08-08T01:03:05;1.50;;;0.80;;
34204;SDS011;20471;49.680;20.074;2023-08-08T01:05:34;0.90;;;0.60;;
34204;SDS011;20471;49.680;20.074;2023-08-08T01:08:07;1.90;;;0.60;;
34204;SDS011;20471;49.680;20.074;2023-08-08T01:10:37;1.80;;;0.80;;
34204;SDS011;20471;49.680;20.074;2023-08-08T01:13:17;1.50;;;0.80;;
34204;SDS011;20471;49.680;20.074;2023-08-08T01:15:48;2.50;;;0.80;;
34204;SDS011;20471;49.680;20.074;2023-08-08T01:18:15;1.00;;;0.90;;
34204;SDS011;20471;49.680;20.074;2023-08-08T01:20:43;2.20;;;1.00;;
34204;SDS011;20471;49.680;20.074;2023-08-08T01:23:23;4.50;;;0.80;;
34204;SDS011;20471;49.680;20.074;2023-08-08T01:25:54;1.50;;;0.90;;
34204;SDS011;20471;49.680;20.074;2023-08-08T01:28:23;1.20;;;1.10;;
34204;SDS011;20471;49.680;20.074;2023-08-08T01:30:50;1.80;;;0.80;;
34204;SDS011;20471;49.680;20.074;2023-08-08T01:33:17;2.80;;;1.10;;
34204;SDS011;20471;49.680;20.074;2023-08-08T01:35:45;0.80;;;0.80;;
34204;SDS011;20471;49.680;20.074;2023-08-08T01:40:49;2.30;;;0.80;;
34204;SDS011;20471;49.680;20.074;2023-08-08T01:43:15;1.40;;;1.00;;
34204;SDS011;20471;49.680;20.074;2023-08-08T01:45:44;1.00;;;0.80;;
34204;SDS011;20471;49.680;20.074;2023-08-08T01:48:10;3.50;;;0.80;;
34204;SDS011;20471;49.680;20.074;2023-08-08T01:50:37;1.60;;;0.80;;
34204;SDS011;20471;49.680;20.074;2023-08-08T01:53:04;3.50;;;0.90;;
34204;SDS011;20471;49.680;20.074;2023-08-08T01:55:30;1.60;;;0.70;;
34204;SDS011;20471;49.680;20.074;2023-08-08T01:57:57;1.90;;;0.80;;
34204;SDS011;20471;49.680;20.074;2023-08-08T02:00:23;1.50;;;1.00;;
34204;SDS011;20471;49.680;20.074;2023-08-08T02:02:50;1.70;;;1.00;;
34204;SDS011;20471;49.680;20.074;2023-08-08T02:05:16;3.50;;;1.10;;
34204;SDS011;20471;49.680;20.074;2023-08-08T02:07:43;2.20;;;1.40;;
34204;SDS011;20471;49.680;20.074;2023-08-08T02:10:09;3.30;;;1.30;;
34204;SDS011;20471;49.680;20.074;2023-08-08T02:12:35;2.60;;;1.40;;
34204;SDS011;20471;49.680;20.074;2023-08-08T02:15:01;1.70;;;1.10;;
34204;SDS011;20471;49.680;20.074;2023-08-08T02:17:29;3.80;;;1.20;;
34204;SDS011;20471;49.680;20.074;2023-08-08T02:19:56;5.30;;;1.20;;
34204;SDS011;20471;49.680;20.074;2023-08-08T02:22:22;2.90;;;1.20;;
34204;SDS011;20471;49.680;20.074;2023-08-08T02:24:48;2.70;;;1.40;;
34204;SDS011;20471;49.680;20.074;2023-08-08T02:27:15;4.00;;;1.40;;
34204;SDS011;20471;49.680;20.074;2023-08-08T02:29:41;5.30;;;1.30;;
34204;SDS011;20471;49.680;20.074;2023-08-08T02:32:07;2.00;;;1.10;;
34204;SDS011;20471;49.680;20.074;2023-08-08T02:34:34;1.60;;;1.20;;
34204;SDS011;20471;49.680;20.074;2023-08-08T02:37:00;2.30;;;1.40;;
34204;SDS011;20471;49.680;20.074;2023-08-08T02:39:26;3.40;;;1.20;;
34204;SDS011;20471;49.680;20.074;2023-08-08T02:41:52;3.30;;;1.30;;
34204;SDS011;20471;49.680;20.074;2023-08-08T02:44:19;2.40;;;1.10;;
34204;SDS011;20471;49.680;20.074;2023-08-08T02:46:45;1.40;;;1.30;;
34204;SDS011;20471;49.680;20.074;2023-08-08T02:49:11;2.40;;;1.20;;
34204;SDS011;20471;49.680;20.074;2023-08-08T02:51:37;2.30;;;1.40;;
34204;SDS011;20471;49.680;20.074;2023-08-08T02:54:04;2.30;;;1.10;;
34204;SDS011;20471;49.680;20.074;2023-08-08T02:56:30;5.50;;;1.60;;
34204;SDS011;20471;49.680;20.074;2023-08-08T02:58:56;1.90;;;1.40;;
34204;SDS011;20471;49.680;20.074;2023-08-08T03:01:23;3.20;;;1.40;;
34204;SDS011;20471;49.680;20.074;2023-08-08T03:03:50;2.40;;;1.30;;
34204;SDS011;20471;49.680;20.074;2023-08-08T03:06:16;3.50;;;1.50;;
34204;SDS011;20471;49.680;20.074;2023-08-08T03:08:42;2.70;;;1.50;;
34204;SDS011;20471;49.680;20.074;2023-08-08T03:11:09;3.20;;;1.30;;
34204;SDS011;20471;49.680;20.074;2023-08-08T03:13:35;4.00;;;1.20;;
34204;SDS011;20471;49.680;20.074;2023-08-08T03:16:03;1.70;;;1.50;;
34204;SDS011;20471;49.680;20.074;2023-08-08T03:18:29;2.70;;;1.30;;
34204;SDS011;20471;49.680;20.074;2023-08-08T03:20:55;2.40;;;1.60;;
34204;SDS011;20471;49.680;20.074;2023-08-08T03:23:22;2.00;;;1.30;;
34204;SDS011;20471;49.680;20.074;2023-08-08T03:25:48;5.70;;;2.00;;
34204;SDS011;20471;49.680;20.074;2023-08-08T03:28:15;4.30;;;1.40;;
34204;SDS011;20471;49.680;20.074;2023-08-08T03:30:41;3.00;;;1.40;;
34204;SDS011;20471;49.680;20.074;2023-08-08T03:33:07;5.70;;;2.10;;
34204;SDS011;20471;49.680;20.074;2023-08-08T03:35:34;4.70;;;1.40;;
34204;SDS011;20471;49.680;20.074;2023-08-08T03:38:00;2.80;;;1.60;;
34204;SDS011;20471;49.680;20.074;2023-08-08T03:40:26;1.80;;;1.30;;
34204;SDS011;20471;49.680;20.074;2023-08-08T03:42:52;2.60;;;1.10;;
34204;SDS011;20471;49.680;20.074;2023-08-08T03:45:19;1.80;;;1.40;;
34204;SDS011;20471;49.680;20.074;2023-08-08T03:47:45;3.50;;;1.30;;
34204;SDS011;20471;49.680;20.074;2023-08-08T03:50:11;2.70;;;1.40;;
34204;SDS011;20471;49.680;20.074;2023-08-08T03:52:38;5.20;;;1.60;;
34204;SDS011;20471;49.680;20.074;2023-08-08T03:55:04;3.90;;;1.60;;
34204;SDS011;20471;49.680;20.074;2023-08-08T03:57:31;2.70;;;1.00;;
34204;SDS011;20471;49.680;20.074;2023-08-08T03:59:57;4.30;;;1.60;;
34204;SDS011;20471;49.680;20.074;2023-08-08T04:02:24;2.70;;;1.70;;
34204;SDS011;20471;49.680;20.074;2023-08-08T04:04:50;3.50;;;1.30;;
34204;SDS011;20471;49.680;20.074;2023-08-08T04:07:17;2.10;;;1.50;;
34204;SDS011;20471;49.680;20.074;2023-08-08T04:09:43;5.40;;;1.50;;
34204;SDS011;20471;49.680;20.074;2023-08-08T04:12:09;4.40;;;1.70;;
34204;SDS011;20471;49.680;20.074;2023-08-08T04:14:36;4.30;;;1.70;;
34204;SDS011;20471;49.680;20.074;2023-08-08T04:17:02;2.50;;;1.10;;
34204;SDS011;20471;49.680;20.074;2023-08-08T04:19:30;2.20;;;1.50;;
34204;SDS011;20471;49.680;20.074;2023-08-08T04:21:56;8.00;;;1.70;;
34204;SDS011;20471;49.680;20.074;2023-08-08T04:24:22;2.10;;;1.50;;
34204;SDS011;20471;49.680;20.074;2023-08-08T04:26:49;2.30;;;1.30;;
34204;SDS011;20471;49.680;20.074;2023-08-08T04:29:15;6.80;;;1.70;;
34204;SDS011;20471;49.680;20.074;2023-08-08T04:31:41;2.00;;;1.60;;
34204;SDS011;20471;49.680;20.074;2023-08-08T04:34:08;4.00;;;1.20;;
34204;SDS011;20471;49.680;20.074;2023-08-08T04:36:34;2.80;;;1.50;;
34204;SDS011;20471;49.680;20.074;2023-08-08T04:39:00;4.70;;;2.00;;
34204;SDS011;20471;49.680;20.074;2023-08-08T04:41:27;2.50;;;1.40;;
34204;SDS011;20471;49.680;20.074;2023-08-08T04:43:53;3.70;;;1.40;;
34204;SDS011;20471;49.680;20.074;2023-08-08T04:46:19;2.80;;;1.90;;
34204;SDS011;20471;49.680;20.074;2023-08-08T04:48:45;3.30;;;1.50;;
34204;SDS011;20471;49.680;20.074;2023-08-08T04:51:12;6.90;;;1.60;;
34204;SDS011;20471;49.680;20.074;2023-08-08T04:53:38;3.00;;;1.50;;
34204;SDS011;20471;49.680;20.074;2023-08-08T04:56:04;4.80;;;1.80;;
34204;SDS011;20471;49.680;20.074;2023-08-08T04:58:31;3.90;;;1.40;;
34204;SDS011;20471;49.680;20.074;2023-08-08T05:00:57;2.10;;;1.30;;
34204;SDS011;20471;49.680;20.074;2023-08-08T05:03:24;3.40;;;1.50;;
34204;SDS011;20471;49.680;20.074;2023-08-08T05:05:50;2.30;;;1.40;;
34204;SDS011;20471;49.680;20.074;2023-08-08T05:08:17;3.90;;;1.30;;
34204;SDS011;20471;49.680;20.074;2023-08-08T05:10:43;5.50;;;1.40;;
34204;SDS011;20471;49.680;20.074;2023-08-08T05:13:09;2.50;;;1.50;;
34204;SDS011;20471;49.680;20.074;2023-08-08T05:15:36;2.70;;;1.60;;
34204;SDS011;20471;49.680;20.074;2023-08-08T05:18:02;2.20;;;1.50;;
34204;SDS011;20471;49.680;20.074;2023-08-08T05:20:29;1.80;;;1.40;;
34204;SDS011;20471;49.680;20.074;2023-08-08T05:22:55;4.30;;;1.60;;
34204;SDS011;20471;49.680;20.074;2023-08-08T05:25:21;3.10;;;1.50;;
34204;SDS011;20471;49.680;20.074;2023-08-08T05:27:48;9.20;;;1.70;;
34204;SDS011;20471;49.680;20.074;2023-08-08T05:30:15;2.50;;;1.40;;
34204;SDS011;20471;49.680;20.074;2023-08-08T05:32:41;3.40;;;1.20;;
34204;SDS011;20471;49.680;20.074;2023-08-08T05:35:08;2.80;;;1.50;;
34204;SDS011;20471;49.680;20.074;2023-08-08T05:37:34;2.60;;;1.60;;
34204;SDS011;20471;49.680;20.074;2023-08-08T05:40:00;2.70;;;1.50;;
34204;SDS011;20471;49.680;20.074;2023-08-08T05:42:27;2.60;;;1.20;;
34204;SDS011;20471;49.680;20.074;2023-08-08T05:44:53;2.30;;;1.30;;
34204;SDS011;20471;49.680;20.074;2023-08-08T05:47:19;3.40;;;1.40;;
34204;SDS011;20471;49.680;20.074;2023-08-08T05:49:46;3.20;;;1.40;;
34204;SDS011;20471;49.680;20.074;2023-08-08T05:52:12;5.70;;;1.60;;
34204;SDS011;20471;49.680;20.074;2023-08-08T05:54:38;1.60;;;1.20;;
34204;SDS011;20471;49.680;20.074;2023-08-08T05:57:05;4.10;;;1.30;;
34204;SDS011;20471;49.680;20.074;2023-08-08T05:59:31;1.80;;;1.30;;
34204;SDS011;20471;49.680;20.074;2023-08-08T06:01:58;3.70;;;1.40;;
34204;SDS011;20471;49.680;20.074;2023-08-08T06:04:24;3.20;;;1.50;;
34204;SDS011;20471;49.680;20.074;2023-08-08T06:06:51;3.70;;;1.30;;
34204;SDS011;20471;49.680;20.074;2023-08-08T06:09:17;2.40;;;1.20;;
34204;SDS011;20471;49.680;20.074;2023-08-08T06:11:44;3.20;;;1.50;;
34204;SDS011;20471;49.680;20.074;2023-08-08T06:14:10;3.50;;;1.40;;
34204;SDS011;20471;49.680;20.074;2023-08-08T06:16:36;2.20;;;1.50;;
34204;SDS011;20471;49.680;20.074;2023-08-08T06:19:03;5.30;;;1.70;;
34204;SDS011;20471;49.680;20.074;2023-08-08T06:21:29;3.50;;;1.60;;
34204;SDS011;20471;49.680;20.074;2023-08-08T06:23:56;3.90;;;1.40;;
34204;SDS011;20471;49.680;20.074;2023-08-08T06:26:22;2.70;;;1.80;;
34204;SDS011;20471;49.680;20.074;2023-08-08T06:28:48;3.80;;;1.60;;
34204;SDS011;20471;49.680;20.074;2023-08-08T06:31:17;1.90;;;1.50;;
34204;SDS011;20471;49.680;20.074;2023-08-08T06:33:44;2.70;;;1.40;;
34204;SDS011;20471;49.680;20.074;2023-08-08T06:36:10;2.60;;;1.40;;
34204;SDS011;20471;49.680;20.074;2023-08-08T06:38:37;2.50;;;1.60;;
34204;SDS011;20471;49.680;20.074;2023-08-08T06:41:03;4.10;;;1.60;;
34204;SDS011;20471;49.680;20.074;2023-08-08T06:43:30;2.40;;;1.40;;
34204;SDS011;20471;49.680;20.074;2023-08-08T06:45:57;2.90;;;1.50;;
34204;SDS011;20471;49.680;20.074;2023-08-08T06:48:23;2.30;;;1.60;;
34204;SDS011;20471;49.680;20.074;2023-08-08T06:50:49;2.20;;;1.30;;
34204;SDS011;20471;49.680;20.074;2023-08-08T06:53:16;1.60;;;1.20;;
34204;SDS011;20471;49.680;20.074;2023-08-08T06:55:42;3.10;;;1.50;;
34204;SDS011;20471;49.680;20.074;2023-08-08T06:58:08;2.70;;;1.40;;
34204;SDS011;20471;49.680;20.074;2023-08-08T07:00:35;3.00;;;1.80;;
34204;SDS011;20471;49.680;20.074;2023-08-08T07:03:01;3.10;;;1.90;;
34204;SDS011;20471;49.680;20.074;2023-08-08T07:05:27;3.50;;;1.50;;
34204;SDS011;20471;49.680;20.074;2023-08-08T07:07:55;4.50;;;1.70;;
34204;SDS011;20471;49.680;20.074;2023-08-08T07:10:21;4.60;;;2.00;;
34204;SDS011;20471;49.680;20.074;2023-08-08T07:12:47;2.30;;;1.40;;
34204;SDS011;20471;49.680;20.074;2023-08-08T07:15:14;3.10;;;1.40;;
34204;SDS011;20471;49.680;20.074;2023-08-08T07:17:40;4.40;;;1.70;;
34204;SDS011;20471;49.680;20.074;2023-08-08T07:20:07;2.00;;;1.50;;
34204;SDS011;20471;49.680;20.074;2023-08-08T07:22:34;6.20;;;1.70;;
34204;SDS011;20471;49.680;20.074;2023-08-08T07:25:00;2.40;;;1.40;;
34204;SDS011;20471;49.680;20.074;2023-08-08T07:27:27;2.30;;;1.30;;
34204;SDS011;20471;49.680;20.074;2023-08-08T07:29:53;2.30;;;1.70;;
34204;SDS011;20471;49.680;20.074;2023-08-08T07:32:19;5.20;;;1.30;;
34204;SDS011;20471;49.680;20.074;2023-08-08T07:34:46;3.70;;;1.50;;
34204;SDS011;20471;49.680;20.074;2023-08-08T07:37:13;3.50;;;1.90;;
34204;SDS011;20471;49.680;20.074;2023-08-08T07:39:40;1.80;;;1.20;;
34204;SDS011;20471;49.680;20.074;2023-08-08T07:42:06;3.40;;;1.50;;
34204;SDS011;20471;49.680;20.074;2023-08-08T07:44:32;4.10;;;1.60;;
34204;SDS011;20471;49.680;20.074;2023-08-08T07:47:00;2.90;;;1.60;;
34204;SDS011;20471;49.680;20.074;2023-08-08T07:49:26;2.90;;;1.40;;
34204;SDS011;20471;49.680;20.074;2023-08-08T07:51:52;2.80;;;1.40;;
34204;SDS011;20471;49.680;20.074;2023-08-08T07:54:19;1.50;;;1.30;;
34204;SDS011;20471;49.680;20.074;2023-08-08T07:56:45;3.30;;;1.80;;
34204;SDS011;20471;49.680;20.074;2023-08-08T07:59:11;5.60;;;1.60;;
34204;SDS011;20471;49.680;20.074;2023-08-08T08:01:37;2.40;;;1.20;;
34204;SDS011;20471;49.680;20.074;2023-08-08T08:04:04;3.00;;;1.70;;
34204;SDS011;20471;49.680;20.074;2023-08-08T08:06:30;2.20;;;1.30;;
34204;SDS011;20471;49.680;20.074;2023-08-08T08:08:57;1.50;;;1.30;;
34204;SDS011;20471;49.680;20.074;2023-08-08T08:11:23;3.10;;;1.40;;
34204;SDS011;20471;49.680;20.074;2023-08-08T08:13:50;1.80;;;1.10;;
34204;SDS011;20471;49.680;20.074;2023-08-08T08:16:16;2.90;;;1.20;;
34204;SDS011;20471;49.680;20.074;2023-08-08T08:18:42;2.10;;;1.20;;
34204;SDS011;20471;49.680;20.074;2023-08-08T08:21:09;1.80;;;1.20;;
34204;SDS011;20471;49.680;20.074;2023-08-08T08:23:35;2.00;;;1.40;;
34204;SDS011;20471;49.680;20.074;2023-08-08T08:26:01;4.30;;;1.30;;
34204;SDS011;20471;49.680;20.074;2023-08-08T08:28:27;3.80;;;1.50;;
34204;SDS011;20471;49.680;20.074;2023-08-08T08:30:54;5.20;;;1.80;;
34204;SDS011;20471;49.680;20.074;2023-08-08T08:33:20;2.60;;;1.50;;
34204;SDS011;20471;49.680;20.074;2023-08-08T08:35:47;2.90;;;1.20;;
34204;SDS011;20471;49.680;20.074;2023-08-08T08:38:13;3.10;;;1.60;;
34204;SDS011;20471;49.680;20.074;2023-08-08T08:40:40;2.30;;;1.00;;
34204;SDS011;20471;49.680;20.074;2023-08-08T08:43:07;5.70;;;1.50;;
34204;SDS011;20471;49.680;20.074;2023-08-08T08:45:37;2.10;;;1.20;;
34204;SDS011;20471;49.680;20.074;2023-08-08T08:48:04;1.50;;;1.10;;
34204;SDS011;20471;49.680;20.074;2023-08-08T08:50:35;2.00;;;1.30;;
34204;SDS011;20471;49.680;20.074;2023-08-08T08:53:03;2.60;;;1.60;;
34204;SDS011;20471;49.680;20.074;2023-08-08T08:55:30;3.60;;;1.40;;
34204;SDS011;20471;49.680;20.074;2023-08-08T08:57:57;3.00;;;1.20;;
34204;SDS011;20471;49.680;20.074;2023-08-08T09:00:24;2.90;;;1.50;;
34204;SDS011;20471;49.680;20.074;2023-08-08T09:02:51;2.60;;;1.40;;
34204;SDS011;20471;49.680;20.074;2023-08-08T09:05:20;2.00;;;1.70;;
34204;SDS011;20471;49.680;20.074;2023-08-08T09:07:48;2.40;;;1.20;;
34204;SDS011;20471;49.680;20.074;2023-08-08T09:10:15;1.80;;;1.40;;
34204;SDS011;20471;49.680;20.074;2023-08-08T09:12:42;1.70;;;1.10;;
34204;SDS011;20471;49.680;20.074;2023-08-08T09:15:08;3.10;;;1.30;;
34204;SDS011;20471;49.680;20.074;2023-08-08T09:17:35;3.30;;;1.40;;
34204;SDS011;20471;49.680;20.074;2023-08-08T09:20:02;2.70;;;1.30;;
34204;SDS011;20471;49.680;20.074;2023-08-08T09:22:29;2.50;;;1.10;;
34204;SDS011;20471;49.680;20.074;2023-08-08T09:24:55;3.20;;;1.20;;
34204;SDS011;20471;49.680;20.074;2023-08-08T09:27:22;3.00;;;1.40;;
34204;SDS011;20471;49.680;20.074;2023-08-08T09:29:48;1.30;;;0.80;;
34204;SDS011;20471;49.680;20.074;2023-08-08T09:32:15;2.50;;;1.30;;
34204;SDS011;20471;49.680;20.074;2023-08-08T09:34:43;2.30;;;1.20;;
34204;SDS011;20471;49.680;20.074;2023-08-08T09:37:09;4.10;;;1.40;;
34204;SDS011;20471;49.680;20.074;2023-08-08T09:39:36;1.60;;;1.30;;
34204;SDS011;20471;49.680;20.074;2023-08-08T09:42:03;2.40;;;1.20;;
34204;SDS011;20471;49.680;20.074;2023-08-08T09:44:30;3.70;;;1.40;;
34204;SDS011;20471;49.680;20.074;2023-08-08T09:46:57;3.50;;;1.30;;
34204;SDS011;20471;49.680;20.074;2023-08-08T09:49:23;2.60;;;1.50;;
34204;SDS011;20471;49.680;20.074;2023-08-08T09:51:50;2.10;;;1.30;;
34204;SDS011;20471;49.680;20.074;2023-08-08T09:54:17;2.20;;;1.00;;
34204;SDS011;20471;49.680;20.074;2023-08-08T09:56:43;3.60;;;1.50;;
34204;SDS011;20471;49.680;20.074;2023-08-08T09:59:10;3.40;;;1.60;;
34204;SDS011;20471;49.680;20.074;2023-08-08T10:01:38;1.30;;;1.20;;
34204;SDS011;20471;49.680;20.074;2023-08-08T10:04:06;3.10;;;1.50;;
34204;SDS011;20471;49.680;20.074;2023-08-08T10:06:33;1.90;;;1.40;;
34204;SDS011;20471;49.680;20.074;2023-08-08T10:09:00;1.70;;;1.30;;
34204;SDS011;20471;49.680;20.074;2023-08-08T10:11:28;4.00;;;1.50;;
34204;SDS011;20471;49.680;20.074;2023-08-08T10:13:57;3.90;;;1.40;;
34204;SDS011;20471;49.680;20.074;2023-08-08T10:16:25;3.50;;;1.40;;
34204;SDS011;20471;49.680;20.074;2023-08-08T10:18:55;3.70;;;1.40;;
34204;SDS011;20471;49.680;20.074;2023-08-08T10:21:25;2.30;;;1.30;;
34204;SDS011;20471;49.680;20.074;2023-08-08T10:26:57;2.80;;;1.40;;
34204;SDS011;20471;49.680;20.074;2023-08-08T10:29:26;3.20;;;1.30;;
34204;SDS011;20471;49.680;20.074;2023-08-08T10:31:57;2.30;;;1.30;;
34204;SDS011;20471;49.680;20.074;2023-08-08T10:34:41;3.20;;;1.10;;
34204;SDS011;20471;49.680;20.074;2023-08-08T10:37:16;3.70;;;1.30;;
34204;SDS011;20471;49.680;20.074;2023-08-08T10:39:59;2.70;;;1.40;;
34204;SDS011;20471;49.680;20.074;2023-08-08T10:42:31;1.90;;;1.40;;
34204;SDS011;20471;49.680;20.074;2023-08-08T10:45:01;3.50;;;1.60;;
34204;SDS011;20471;49.680;20.074;2023-08-08T10:47:32;3.80;;;1.70;;
34204;SDS011;20471;49.680;20.074;2023-08-08T10:50:10;4.30;;;1.60;;
34204;SDS011;20471;49.680;20.074;2023-08-08T10:52:51;2.50;;;1.50;;
34204;SDS011;20471;49.680;20.074;2023-08-08T10:55:23;1.60;;;1.50;;
34204;SDS011;20471;49.680;20.074;2023-08-08T11:00:29;3.30;;;1.50;;
34204;SDS011;20471;49.680;20.074;2023-08-08T11:02:57;3.20;;;1.30;;
34204;SDS011;20471;49.680;20.074;2023-08-08T11:05:27;2.20;;;1.30;;
34204;SDS011;20471;49.680;20.074;2023-08-08T11:07:55;2.80;;;1.50;;
34204;SDS011;20471;49.680;20.074;2023-08-08T11:10:21;2.50;;;1.40;;
34204;SDS011;20471;49.680;20.074;2023-08-08T11:12:58;4.10;;;1.70;;
34204;SDS011;20471;49.680;20.074;2023-08-08T11:15:28;4.10;;;1.70;;
34204;SDS011;20471;49.680;20.074;2023-08-08T11:17:56;5.80;;;1.80;;
34204;SDS011;20471;49.680;20.074;2023-08-08T11:20:23;3.20;;;1.80;;
34204;SDS011;20471;49.680;20.074;2023-08-08T11:22:51;2.90;;;1.50;;
34204;SDS011;20471;49.680;20.074;2023-08-08T11:25:21;2.50;;;1.30;;
34204;SDS011;20471;49.680;20.074;2023-08-08T11:27:51;4.00;;;1.50;;
34204;SDS011;20471;49.680;20.074;2023-08-08T11:30:19;2.60;;;1.80;;
34204;SDS011;20471;49.680;20.074;2023-08-08T11:32:47;2.60;;;1.50;;
34204;SDS011;20471;49.680;20.074;2023-08-08T11:35:20;2.80;;;1.60;;
34204;SDS011;20471;49.680;20.074;2023-08-08T11:37:48;1.70;;;1.30;;
34204;SDS011;20471;49.680;20.074;2023-08-08T11:40:17;1.50;;;1.20;;
34204;SDS011;20471;49.680;20.074;2023-08-08T11:42:45;4.00;;;1.60;;
34204;SDS011;20471;49.680;20.074;2023-08-08T11:45:12;3.20;;;1.60;;
34204;SDS011;20471;49.680;20.074;2023-08-08T11:47:39;3.80;;;1.80;;
34204;SDS011;20471;49.680;20.074;2023-08-08T11:50:07;1.50;;;1.40;;
34204;SDS011;20471;49.680;20.074;2023-08-08T11:52:36;1.70;;;1.20;;
34204;SDS011;20471;49.680;20.074;2023-08-08T11:55:06;3.10;;;1.30;;
34204;SDS011;20471;49.680;20.074;2023-08-08T11:57:36;3.20;;;1.40;;
34204;SDS011;20471;49.680;20.074;2023-08-08T12:00:06;4.00;;;1.60;;
34204;SDS011;20471;49.680;20.074;2023-08-08T12:02:35;1.40;;;1.30;;
34204;SDS011;20471;49.680;20.074;2023-08-08T12:05:05;2.10;;;1.40;;
34204;SDS011;20471;49.680;20.074;2023-08-08T12:07:36;2.00;;;1.80;;
34204;SDS011;20471;49.680;20.074;2023-08-08T12:10:06;2.30;;;1.40;;
34204;SDS011;20471;49.680;20.074;2023-08-08T12:12:39;2.70;;;1.50;;
34204;SDS011;20471;49.680;20.074;2023-08-08T12:15:06;2.90;;;1.60;;
34204;SDS011;20471;49.680;20.074;2023-08-08T12:17:32;4.00;;;1.70;;
34204;SDS011;20471;49.680;20.074;2023-08-08T12:19:59;3.00;;;1.90;;
34204;SDS011;20471;49.680;20.074;2023-08-08T12:22:26;3.50;;;1.50;;
34204;SDS011;20471;49.680;20.074;2023-08-08T12:24:53;3.10;;;1.60;;
34204;SDS011;20471;49.680;20.074;2023-08-08T12:27:19;3.50;;;1.70;;
34204;SDS011;20471;49.680;20.074;2023-08-08T12:29:45;1.90;;;1.60;;
34204;SDS011;20471;49.680;20.074;2023-08-08T12:32:12;3.10;;;1.50;;
34204;SDS011;20471;49.680;20.074;2023-08-08T12:34:38;4.60;;;1.90;;
34204;SDS011;20471;49.680;20.074;2023-08-08T12:37:05;2.20;;;1.70;;
34204;SDS011;20471;49.680;20.074;2023-08-08T12:39:31;1.90;;;1.60;;
34204;SDS011;20471;49.680;20.074;2023-08-08T12:41:58;2.30;;;1.70;;
34204;SDS011;20471;49.680;20.074;2023-08-08T12:44:24;4.20;;;1.70;;
34204;SDS011;20471;49.680;20.074;2023-08-08T12:46:50;5.10;;;1.80;;
34204;SDS011;20471;49.680;20.074;2023-08-08T12:49:17;5.00;;;1.70;;
34204;SDS011;20471;49.680;20.074;2023-08-08T12:51:43;2.50;;;1.60;;
34204;SDS011;20471;49.680;20.074;2023-08-08T12:54:09;3.80;;;1.70;;
34204;SDS011;20471;49.680;20.074;2023-08-08T12:56:36;3.20;;;1.50;;
34204;SDS011;20471;49.680;20.074;2023-08-08T12:59:02;2.80;;;1.80;;
34204;SDS011;20471;49.680;20.074;2023-08-08T13:01:28;1.70;;;1.40;;
34204;SDS011;20471;49.680;20.074;2023-08-08T13:03:55;3.00;;;1.50;;
34204;SDS011;20471;49.680;20.074;2023-08-08T13:06:21;4.70;;;1.80;;
34204;SDS011;20471;49.680;20.074;2023-08-08T13:08:47;5.30;;;2.10;;
34204;SDS011;20471;49.680;20.074;2023-08-08T13:11:14;2.70;;;1.40;;
34204;SDS011;20471;49.680;20.074;2023-08-08T13:13:40;4.10;;;1.80;;
34204;SDS011;20471;49.680;20.074;2023-08-08T13:16:07;3.50;;;2.00;;
34204;SDS011;20471;49.680;20.074;2023-08-08T13:18:33;4.30;;;1.60;;
34204;SDS011;20471;49.680;20.074;2023-08-08T13:20:59;1.60;;;1.40;;
34204;SDS011;20471;49.680;20.074;2023-08-08T13:23:26;2.10;;;1.40;;
34204;SDS011;20471;49.680;20.074;2023-08-08T13:25:52;2.20;;;1.30;;
34204;SDS011;20471;49.680;20.074;2023-08-08T13:28:18;2.70;;;1.60;;
34204;SDS011;20471;49.680;20.074;2023-08-08T13:30:45;3.10;;;1.30;;
34204;SDS011;20471;49.680;20.074;2023-08-08T13:33:11;3.00;;;1.20;;
34204;SDS011;20471;49.680;20.074;2023-08-08T13:35:37;2.40;;;1.50;;
34204;SDS011;20471;49.680;20.074;2023-08-08T13:38:04;2.20;;;1.30;;
34204;SDS011;20471;49.680;20.074;2023-08-08T13:40:30;1.90;;;1.20;;
34204;SDS011;20471;49.680;20.074;2023-08-08T13:42:56;2.20;;;1.60;;
34204;SDS011;20471;49.680;20.074;2023-08-08T13:45:23;1.50;;;1.30;;
34204;SDS011;20471;49.680;20.074;2023-08-08T13:47:49;2.60;;;1.60;;
34204;SDS011;20471;49.680;20.074;2023-08-08T13:50:16;1.40;;;1.30;;
34204;SDS011;20471;49.680;20.074;2023-08-08T13:52:42;3.30;;;1.30;;
34204;SDS011;20471;49.680;20.074;2023-08-08T13:55:09;2.80;;;1.80;;
34204;SDS011;20471;49.680;20.074;2023-08-08T13:57:35;2.00;;;1.50;;
34204;SDS011;20471;49.680;20.074;2023-08-08T14:00:02;2.80;;;1.40;;
34204;SDS011;20471;49.680;20.074;2023-08-08T14:02:29;3.50;;;1.50;;
34204;SDS011;20471;49.680;20.074;2023-08-08T14:04:55;2.00;;;1.60;;
34204;SDS011;20471;49.680;20.074;2023-08-08T14:07:22;2.10;;;1.70;;
34204;SDS011;20471;49.680;20.074;2023-08-08T14:09:48;5.20;;;1.60;;
34204;SDS011;20471;49.680;20.074;2023-08-08T14:12:14;1.90;;;1.70;;
34204;SDS011;20471;49.680;20.074;2023-08-08T14:14:41;1.90;;;1.70;;
34204;SDS011;20471;49.680;20.074;2023-08-08T14:17:07;3.10;;;1.70;;
34204;SDS011;20471;49.680;20.074;2023-08-08T14:19:34;5.70;;;1.60;;
34204;SDS011;20471;49.680;20.074;2023-08-08T14:22:00;2.10;;;1.60;;
34204;SDS011;20471;49.680;20.074;2023-08-08T14:24:26;2.20;;;1.50;;
34204;SDS011;20471;49.680;20.074;2023-08-08T14:26:53;3.60;;;1.70;;
34204;SDS011;20471;49.680;20.074;2023-08-08T14:29:19;3.70;;;1.50;;
34204;SDS011;20471;49.680;20.074;2023-08-08T14:31:45;2.40;;;1.70;;
34204;SDS011;20471;49.680;20.074;2023-08-08T14:34:12;3.10;;;1.60;;
34204;SDS011;20471;49.680;20.074;2023-08-08T14:36:38;1.40;;;1.30;;
34204;SDS011;20471;49.680;20.074;2023-08-08T14:39:04;1.90;;;1.60;;
34204;SDS011;20471;49.680;20.074;2023-08-08T14:41:31;2.20;;;1.50;;